sensor_id;sensor_type;location;lat;lon;timestamp;P1;durP1;ratioP1;P2;durP2;ratioP2
12703;SDS011;6416;52.182;7.650;2022-10-16T00:00:34;3.03;;;2.60;;
12703;SDS011;6416;52.182;7.650;2022-10-16T00:03:00;2.63;;;2.43;;
12703;SDS011;6416;52.182;7.650;2022-10-16T00:05:26;3.00;;;2.70;;
12703;SDS011;6416;52.182;7.650;2022-10-16T00:07:52;3.90;;;2.63;;
12703;SDS011;6416;52.182;7.650;2022-10-16T00:10:17;3.87;;;2.50;;
12703;SDS011;6416;52.182;7.650;2022-10-16T00:12:43;4.37;;;2.70;;
12703;SDS011;6416;52.182;7.650;2022-10-16T00:15:08;2.73;;;2.53;;
12703;SDS011;6416;52.182;7.650;2022-10-16T00:17:34;2.70;;;2.50;;
12703;SDS011;6416;52.182;7.650;2022-10-16T00:19:59;3.20;;;2.90;;
12703;SDS011;6416;52.182;7.650;2022-10-16T00:22:25;3.30;;;3.00;;
12703;SDS011;6416;52.182;7.650;2022-10-16T00:24:51;7.53;;;2.93;;
12703;SDS011;6416;52.182;7.650;2022-10-16T00:27:16;3.17;;;2.80;;
12703;SDS011;6416;52.182;7.650;2022-10-16T00:29:42;3.73;;;2.60;;
12703;SDS011;6416;52.182;7.650;2022-10-16T00:32:08;2.93;;;2.73;;
12703;SDS011;6416;52.182;7.650;2022-10-16T00:34:33;3.40;;;3.10;;
12703;SDS011;6416;52.182;7.650;2022-10-16T00:36:59;3.47;;;3.17;;
12703;SDS011;6416;52.182;7.650;2022-10-16T00:39:27;4.23;;;2.97;;
12703;SDS011;6416;52.182;7.650;2022-10-16T00:41:53;4.00;;;3.60;;
12703;SDS011;6416;52.182;7.650;2022-10-16T00:49:51;3.60;;;3.23;;
12703;SDS011;6416;52.182;7.650;2022-10-16T00:52:24;3.97;;;3.50;;
12703;SDS011;6416;52.182;7.650;2022-10-16T00:54:50;3.87;;;3.30;;
12703;SDS011;6416;52.182;7.650;2022-10-16T00:57:18;4.80;;;3.10;;
12703;SDS011;6416;52.182;7.650;2022-10-16T00:59:43;3.57;;;3.27;;
12703;SDS011;6416;52.182;7.650;2022-10-16T01:02:11;4.57;;;3.40;;
12703;SDS011;6416;52.182;7.650;2022-10-16T01:04:49;4.80;;;3.80;;
12703;SDS011;6416;52.182;7.650;2022-10-16T01:12:50;4.77;;;3.40;;
12703;SDS011;6416;52.182;7.650;2022-10-16T01:15:28;5.03;;;3.60;;
12703;SDS011;6416;52.182;7.650;2022-10-16T01:25:59;3.87;;;3.57;;
12703;SDS011;6416;52.182;7.650;2022-10-16T01:31:10;6.10;;;3.57;;
12703;SDS011;6416;52.182;7.650;2022-10-16T01:33:41;5.87;;;3.67;;
12703;SDS011;6416;52.182;7.650;2022-10-16T01:36:14;5.57;;;3.83;;
12703;SDS011;6416;52.182;7.650;2022-10-16T01:38:43;3.90;;;3.60;;
12703;SDS011;6416;52.182;7.650;2022-10-16T01:41:15;4.60;;;3.53;;
12703;SDS011;6416;52.182;7.650;2022-10-16T01:44:14;4.63;;;3.93;;
12703;SDS011;6416;52.182;7.650;2022-10-16T01:46:49;4.60;;;3.77;;
12703;SDS011;6416;52.182;7.650;2022-10-16T01:49:16;4.23;;;3.83;;
12703;SDS011;6416;52.182;7.650;2022-10-16T01:51:44;4.83;;;4.03;;
12703;SDS011;6416;52.182;7.650;2022-10-16T01:54:13;3.70;;;3.40;;
12703;SDS011;6416;52.182;7.650;2022-10-16T01:56:41;3.83;;;3.43;;
12703;SDS011;6416;52.182;7.650;2022-10-16T01:59:11;5.13;;;4.20;;
12703;SDS011;6416;52.182;7.650;2022-10-16T02:01:40;4.43;;;4.03;;
12703;SDS011;6416;52.182;7.650;2022-10-16T02:04:11;4.27;;;3.87;;
12703;SDS011;6416;52.182;7.650;2022-10-16T02:06:41;5.33;;;4.17;;
12703;SDS011;6416;52.182;7.650;2022-10-16T02:09:06;4.13;;;3.63;;
12703;SDS011;6416;52.182;7.650;2022-10-16T02:11:32;4.60;;;4.10;;
12703;SDS011;6416;52.182;7.650;2022-10-16T02:13:58;4.30;;;3.90;;
12703;SDS011;6416;52.182;7.650;2022-10-16T02:16:36;3.93;;;3.63;;
12703;SDS011;6416;52.182;7.650;2022-10-16T02:19:02;6.33;;;3.97;;
12703;SDS011;6416;52.182;7.650;2022-10-16T02:21:29;4.63;;;4.03;;
12703;SDS011;6416;52.182;7.650;2022-10-16T02:27:20;4.73;;;3.77;;
12703;SDS011;6416;52.182;7.650;2022-10-16T02:30:08;6.30;;;3.70;;
12703;SDS011;6416;52.182;7.650;2022-10-16T02:32:40;4.53;;;4.10;;
12703;SDS011;6416;52.182;7.650;2022-10-16T02:35:09;5.07;;;4.10;;
12703;SDS011;6416;52.182;7.650;2022-10-16T02:37:35;4.23;;;3.77;;
12703;SDS011;6416;52.182;7.650;2022-10-16T02:40:03;5.90;;;4.63;;
12703;SDS011;6416;52.182;7.650;2022-10-16T02:42:33;4.37;;;3.97;;
12703;SDS011;6416;52.182;7.650;2022-10-16T02:45:04;4.33;;;3.90;;
12703;SDS011;6416;52.182;7.650;2022-10-16T02:47:30;5.00;;;3.47;;
12703;SDS011;6416;52.182;7.650;2022-10-16T02:49:55;4.60;;;3.77;;
12703;SDS011;6416;52.182;7.650;2022-10-16T02:52:24;3.93;;;3.53;;
12703;SDS011;6416;52.182;7.650;2022-10-16T02:54:50;5.83;;;3.97;;
12703;SDS011;6416;52.182;7.650;2022-10-16T02:57:15;4.20;;;3.90;;
12703;SDS011;6416;52.182;7.650;2022-10-16T02:59:41;3.70;;;3.33;;
12703;SDS011;6416;52.182;7.650;2022-10-16T03:02:06;4.20;;;3.80;;
12703;SDS011;6416;52.182;7.650;2022-10-16T03:04:32;4.50;;;3.50;;
12703;SDS011;6416;52.182;7.650;2022-10-16T03:06:57;4.33;;;3.60;;
12703;SDS011;6416;52.182;7.650;2022-10-16T03:09:23;4.07;;;3.40;;
12703;SDS011;6416;52.182;7.650;2022-10-16T03:11:48;4.00;;;3.60;;
12703;SDS011;6416;52.182;7.650;2022-10-16T03:14:14;5.73;;;3.47;;
12703;SDS011;6416;52.182;7.650;2022-10-16T03:16:39;5.13;;;3.40;;
12703;SDS011;6416;52.182;7.650;2022-10-16T03:19:05;6.00;;;3.77;;
12703;SDS011;6416;52.182;7.650;2022-10-16T03:21:30;5.87;;;4.43;;
12703;SDS011;6416;52.182;7.650;2022-10-16T03:23:56;4.23;;;3.30;;
12703;SDS011;6416;52.182;7.650;2022-10-16T03:26:21;3.87;;;3.50;;
12703;SDS011;6416;52.182;7.650;2022-10-16T03:28:47;4.13;;;3.60;;
12703;SDS011;6416;52.182;7.650;2022-10-16T03:31:12;4.37;;;3.30;;
12703;SDS011;6416;52.182;7.650;2022-10-16T03:33:38;4.27;;;3.30;;
12703;SDS011;6416;52.182;7.650;2022-10-16T03:36:03;4.17;;;3.50;;
12703;SDS011;6416;52.182;7.650;2022-10-16T03:38:29;4.00;;;3.70;;
12703;SDS011;6416;52.182;7.650;2022-10-16T03:40:54;3.77;;;3.47;;
12703;SDS011;6416;52.182;7.650;2022-10-16T03:43:20;4.00;;;3.23;;
12703;SDS011;6416;52.182;7.650;2022-10-16T03:45:45;3.90;;;3.50;;
12703;SDS011;6416;52.182;7.650;2022-10-16T03:48:11;5.83;;;2.93;;
12703;SDS011;6416;52.182;7.650;2022-10-16T03:50:36;3.13;;;2.83;;
12703;SDS011;6416;52.182;7.650;2022-10-16T03:53:01;3.70;;;2.80;;
12703;SDS011;6416;52.182;7.650;2022-10-16T03:55:27;2.93;;;2.73;;
12703;SDS011;6416;52.182;7.650;2022-10-16T03:57:53;4.37;;;3.30;;
12703;SDS011;6416;52.182;7.650;2022-10-16T04:00:18;3.30;;;3.00;;
12703;SDS011;6416;52.182;7.650;2022-10-16T04:02:44;3.50;;;2.90;;
12703;SDS011;6416;52.182;7.650;2022-10-16T04:05:09;3.40;;;3.00;;
12703;SDS011;6416;52.182;7.650;2022-10-16T04:07:35;3.17;;;2.87;;
12703;SDS011;6416;52.182;7.650;2022-10-16T04:10:00;3.07;;;2.80;;
12703;SDS011;6416;52.182;7.650;2022-10-16T04:12:26;4.67;;;2.90;;
12703;SDS011;6416;52.182;7.650;2022-10-16T04:14:52;3.90;;;3.00;;
12703;SDS011;6416;52.182;7.650;2022-10-16T04:17:17;3.07;;;2.70;;
12703;SDS011;6416;52.182;7.650;2022-10-16T04:19:43;3.00;;;2.70;;
12703;SDS011;6416;52.182;7.650;2022-10-16T04:22:08;2.53;;;2.30;;
12703;SDS011;6416;52.182;7.650;2022-10-16T04:24:34;3.03;;;2.53;;
12703;SDS011;6416;52.182;7.650;2022-10-16T04:26:59;5.10;;;2.93;;
12703;SDS011;6416;52.182;7.650;2022-10-16T04:29:25;5.90;;;2.67;;
12703;SDS011;6416;52.182;7.650;2022-10-16T04:31:50;2.67;;;2.37;;
12703;SDS011;6416;52.182;7.650;2022-10-16T04:34:16;3.33;;;2.30;;
12703;SDS011;6416;52.182;7.650;2022-10-16T04:36:41;3.80;;;2.37;;
12703;SDS011;6416;52.182;7.650;2022-10-16T04:39:07;4.80;;;2.30;;
12703;SDS011;6416;52.182;7.650;2022-10-16T04:41:32;3.13;;;2.87;;
12703;SDS011;6416;52.182;7.650;2022-10-16T04:43:57;3.57;;;2.67;;
12703;SDS011;6416;52.182;7.650;2022-10-16T04:46:23;2.63;;;2.33;;
12703;SDS011;6416;52.182;7.650;2022-10-16T04:48:48;2.60;;;2.03;;
12703;SDS011;6416;52.182;7.650;2022-10-16T04:51:14;2.83;;;2.17;;
12703;SDS011;6416;52.182;7.650;2022-10-16T04:53:39;3.37;;;2.17;;
12703;SDS011;6416;52.182;7.650;2022-10-16T04:56:05;5.37;;;2.43;;
12703;SDS011;6416;52.182;7.650;2022-10-16T04:58:30;3.93;;;2.30;;
12703;SDS011;6416;52.182;7.650;2022-10-16T05:00:56;3.37;;;2.20;;
12703;SDS011;6416;52.182;7.650;2022-10-16T05:03:21;3.33;;;2.00;;
12703;SDS011;6416;52.182;7.650;2022-10-16T05:05:47;2.10;;;1.73;;
12703;SDS011;6416;52.182;7.650;2022-10-16T05:08:13;2.93;;;2.03;;
12703;SDS011;6416;52.182;7.650;2022-10-16T05:10:40;1.93;;;1.83;;
12703;SDS011;6416;52.182;7.650;2022-10-16T05:13:07;2.17;;;1.73;;
12703;SDS011;6416;52.182;7.650;2022-10-16T05:15:32;2.37;;;1.93;;
12703;SDS011;6416;52.182;7.650;2022-10-16T05:17:58;3.07;;;1.60;;
12703;SDS011;6416;52.182;7.650;2022-10-16T05:20:23;2.20;;;1.97;;
12703;SDS011;6416;52.182;7.650;2022-10-16T05:22:49;1.90;;;1.73;;
12703;SDS011;6416;52.182;7.650;2022-10-16T05:25:14;2.53;;;1.80;;
12703;SDS011;6416;52.182;7.650;2022-10-16T05:27:40;3.03;;;1.80;;
12703;SDS011;6416;52.182;7.650;2022-10-16T05:30:06;1.77;;;1.67;;
12703;SDS011;6416;52.182;7.650;2022-10-16T05:32:31;1.70;;;1.60;;
12703;SDS011;6416;52.182;7.650;2022-10-16T05:34:57;2.07;;;1.87;;
12703;SDS011;6416;52.182;7.650;2022-10-16T05:37:22;1.80;;;1.70;;
12703;SDS011;6416;52.182;7.650;2022-10-16T05:39:48;4.13;;;1.60;;
12703;SDS011;6416;52.182;7.650;2022-10-16T05:42:13;1.87;;;1.57;;
12703;SDS011;6416;52.182;7.650;2022-10-16T05:44:39;1.80;;;1.70;;
12703;SDS011;6416;52.182;7.650;2022-10-16T05:47:04;1.80;;;1.70;;
12703;SDS011;6416;52.182;7.650;2022-10-16T05:49:30;2.03;;;1.57;;
12703;SDS011;6416;52.182;7.650;2022-10-16T05:51:55;3.47;;;1.73;;
12703;SDS011;6416;52.182;7.650;2022-10-16T05:54:21;2.00;;;1.80;;
12703;SDS011;6416;52.182;7.650;2022-10-16T05:56:46;1.97;;;1.77;;
12703;SDS011;6416;52.182;7.650;2022-10-16T05:59:12;2.53;;;1.67;;
12703;SDS011;6416;52.182;7.650;2022-10-16T06:01:37;1.90;;;1.70;;
12703;SDS011;6416;52.182;7.650;2022-10-16T06:04:03;1.57;;;1.47;;
12703;SDS011;6416;52.182;7.650;2022-10-16T06:06:28;2.53;;;1.70;;
12703;SDS011;6416;52.182;7.650;2022-10-16T06:08:54;3.67;;;1.63;;
12703;SDS011;6416;52.182;7.650;2022-10-16T06:11:22;1.80;;;1.70;;
12703;SDS011;6416;52.182;7.650;2022-10-16T06:13:49;2.00;;;1.80;;
12703;SDS011;6416;52.182;7.650;2022-10-16T06:16:19;2.47;;;1.50;;
12703;SDS011;6416;52.182;7.650;2022-10-16T06:18:45;3.63;;;1.90;;
12703;SDS011;6416;52.182;7.650;2022-10-16T06:21:16;4.10;;;1.37;;
12703;SDS011;6416;52.182;7.650;2022-10-16T06:23:43;1.83;;;1.53;;
12703;SDS011;6416;52.182;7.650;2022-10-16T06:26:10;2.13;;;1.70;;
12703;SDS011;6416;52.182;7.650;2022-10-16T06:28:37;2.33;;;1.83;;
12703;SDS011;6416;52.182;7.650;2022-10-16T06:31:04;2.07;;;1.50;;
12703;SDS011;6416;52.182;7.650;2022-10-16T06:33:30;3.97;;;1.77;;
12703;SDS011;6416;52.182;7.650;2022-10-16T06:36:03;2.10;;;1.50;;
12703;SDS011;6416;52.182;7.650;2022-10-16T06:38:30;1.80;;;1.70;;
12703;SDS011;6416;52.182;7.650;2022-10-16T06:40:56;1.47;;;1.37;;
12703;SDS011;6416;52.182;7.650;2022-10-16T06:43:22;1.50;;;1.40;;
12703;SDS011;6416;52.182;7.650;2022-10-16T06:45:54;1.60;;;1.50;;
12703;SDS011;6416;52.182;7.650;2022-10-16T06:48:20;2.13;;;1.40;;
12703;SDS011;6416;52.182;7.650;2022-10-16T06:51:04;2.37;;;1.73;;
12703;SDS011;6416;52.182;7.650;2022-10-16T06:53:32;3.73;;;1.70;;
12703;SDS011;6416;52.182;7.650;2022-10-16T06:56:08;2.77;;;1.80;;
12703;SDS011;6416;52.182;7.650;2022-10-16T06:58:39;2.43;;;1.60;;
12703;SDS011;6416;52.182;7.650;2022-10-16T07:01:06;1.83;;;1.40;;
12703;SDS011;6416;52.182;7.650;2022-10-16T07:03:32;2.47;;;1.63;;
12703;SDS011;6416;52.182;7.650;2022-10-16T07:06:01;1.53;;;1.40;;
12703;SDS011;6416;52.182;7.650;2022-10-16T07:08:27;1.50;;;1.40;;
12703;SDS011;6416;52.182;7.650;2022-10-16T07:11:01;1.60;;;1.33;;
12703;SDS011;6416;52.182;7.650;2022-10-16T07:13:37;2.17;;;1.70;;
12703;SDS011;6416;52.182;7.650;2022-10-16T07:16:11;1.53;;;1.43;;
12703;SDS011;6416;52.182;7.650;2022-10-16T07:18:42;6.37;;;1.83;;
12703;SDS011;6416;52.182;7.650;2022-10-16T07:21:11;1.60;;;1.50;;
12703;SDS011;6416;52.182;7.650;2022-10-16T07:23:39;1.77;;;1.67;;
12703;SDS011;6416;52.182;7.650;2022-10-16T07:26:05;1.67;;;1.57;;
12703;SDS011;6416;52.182;7.650;2022-10-16T07:28:31;1.97;;;1.60;;
12703;SDS011;6416;52.182;7.650;2022-10-16T07:31:01;2.03;;;1.50;;
12703;SDS011;6416;52.182;7.650;2022-10-16T07:33:28;1.87;;;1.47;;
12703;SDS011;6416;52.182;7.650;2022-10-16T07:35:54;1.98;;;1.77;;
12703;SDS011;6416;52.182;7.650;2022-10-16T07:38:20;1.48;;;1.38;;
12703;SDS011;6416;52.182;7.650;2022-10-16T07:40:46;2.85;;;1.52;;
12703;SDS011;6416;52.182;7.650;2022-10-16T07:43:12;1.70;;;1.60;;
12703;SDS011;6416;52.182;7.650;2022-10-16T07:45:47;4.63;;;1.77;;
12703;SDS011;6416;52.182;7.650;2022-10-16T07:48:13;1.42;;;1.33;;
12703;SDS011;6416;52.182;7.650;2022-10-16T07:50:39;1.95;;;1.20;;
12703;SDS011;6416;52.182;7.650;2022-10-16T07:53:04;2.05;;;1.50;;
12703;SDS011;6416;52.182;7.650;2022-10-16T07:55:30;1.80;;;1.35;;
12703;SDS011;6416;52.182;7.650;2022-10-16T07:57:55;2.35;;;1.30;;
12703;SDS011;6416;52.182;7.650;2022-10-16T08:00:21;1.27;;;1.10;;
12703;SDS011;6416;52.182;7.650;2022-10-16T08:02:46;4.28;;;1.60;;
12703;SDS011;6416;52.182;7.650;2022-10-16T08:05:12;1.67;;;1.42;;
12703;SDS011;6416;52.182;7.650;2022-10-16T08:07:37;1.33;;;1.10;;
12703;SDS011;6416;52.182;7.650;2022-10-16T08:10:03;2.17;;;1.27;;
12703;SDS011;6416;52.182;7.650;2022-10-16T08:12:29;1.42;;;1.10;;
12703;SDS011;6416;52.182;7.650;2022-10-16T08:14:54;2.70;;;1.10;;
12703;SDS011;6416;52.182;7.650;2022-10-16T08:17:20;1.70;;;1.20;;
12703;SDS011;6416;52.182;7.650;2022-10-16T08:19:48;2.38;;;1.30;;
12703;SDS011;6416;52.182;7.650;2022-10-16T08:22:13;1.60;;;1.10;;
12703;SDS011;6416;52.182;7.650;2022-10-16T08:24:39;3.40;;;1.25;;
12703;SDS011;6416;52.182;7.650;2022-10-16T08:27:05;1.08;;;1.00;;
12703;SDS011;6416;52.182;7.650;2022-10-16T08:29:30;1.13;;;0.95;;
12703;SDS011;6416;52.182;7.650;2022-10-16T08:31:56;1.92;;;1.13;;
12703;SDS011;6416;52.182;7.650;2022-10-16T08:34:21;2.38;;;1.00;;
12703;SDS011;6416;52.182;7.650;2022-10-16T08:36:47;1.63;;;1.13;;
12703;SDS011;6416;52.182;7.650;2022-10-16T08:39:12;2.67;;;1.10;;
12703;SDS011;6416;52.182;7.650;2022-10-16T08:44:32;2.63;;;1.25;;
12703;SDS011;6416;52.182;7.650;2022-10-16T08:50:24;2.10;;;1.00;;
12703;SDS011;6416;52.182;7.650;2022-10-16T08:52:54;1.52;;;0.98;;
12703;SDS011;6416;52.182;7.650;2022-10-16T08:57:46;2.45;;;0.90;;
12703;SDS011;6416;52.182;7.650;2022-10-16T09:00:12;3.42;;;1.10;;
12703;SDS011;6416;52.182;7.650;2022-10-16T09:02:40;1.30;;;0.85;;
12703;SDS011;6416;52.182;7.650;2022-10-16T09:10:59;2.25;;;0.90;;
12703;SDS011;6416;52.182;7.650;2022-10-16T09:13:35;3.38;;;1.00;;
12703;SDS011;6416;52.182;7.650;2022-10-16T09:16:19;1.92;;;1.00;;
12703;SDS011;6416;52.182;7.650;2022-10-16T09:18:48;1.33;;;0.95;;
12703;SDS011;6416;52.182;7.650;2022-10-16T09:21:24;1.58;;;0.80;;
12703;SDS011;6416;52.182;7.650;2022-10-16T09:23:52;1.42;;;1.00;;
12703;SDS011;6416;52.182;7.650;2022-10-16T09:26:21;2.35;;;1.23;;
12703;SDS011;6416;52.182;7.650;2022-10-16T09:28:47;1.50;;;0.75;;
12703;SDS011;6416;52.182;7.650;2022-10-16T09:31:17;2.22;;;0.73;;
12703;SDS011;6416;52.182;7.650;2022-10-16T09:33:45;1.98;;;0.80;;
12703;SDS011;6416;52.182;7.650;2022-10-16T09:36:18;1.15;;;0.90;;
12703;SDS011;6416;52.182;7.650;2022-10-16T09:38:45;0.57;;;0.57;;
12703;SDS011;6416;52.182;7.650;2022-10-16T09:41:21;1.52;;;0.80;;
12703;SDS011;6416;52.182;7.650;2022-10-16T09:43:48;1.85;;;0.70;;
12703;SDS011;6416;52.182;7.650;2022-10-16T09:46:25;1.58;;;0.93;;
12703;SDS011;6416;52.182;7.650;2022-10-16T09:48:54;4.13;;;1.00;;
12703;SDS011;6416;52.182;7.650;2022-10-16T09:51:26;2.55;;;0.77;;
12703;SDS011;6416;52.182;7.650;2022-10-16T09:54:01;2.38;;;0.70;;
12703;SDS011;6416;52.182;7.650;2022-10-16T09:56:38;5.38;;;0.80;;
12703;SDS011;6416;52.182;7.650;2022-10-16T09:59:08;3.40;;;0.85;;
12703;SDS011;6416;52.182;7.650;2022-10-16T10:01:36;3.78;;;1.10;;
12703;SDS011;6416;52.182;7.650;2022-10-16T10:04:04;1.65;;;0.70;;
12703;SDS011;6416;52.182;7.650;2022-10-16T10:06:32;1.20;;;0.70;;
12703;SDS011;6416;52.182;7.650;2022-10-16T10:14:20;1.85;;;0.75;;
12703;SDS011;6416;52.182;7.650;2022-10-16T10:16:48;1.48;;;0.80;;
12703;SDS011;6416;52.182;7.650;2022-10-16T10:19:19;1.85;;;0.85;;
12703;SDS011;6416;52.182;7.650;2022-10-16T10:21:48;1.20;;;0.75;;
12703;SDS011;6416;52.182;7.650;2022-10-16T10:24:16;3.20;;;1.25;;
12703;SDS011;6416;52.182;7.650;2022-10-16T10:26:48;1.27;;;0.60;;
12703;SDS011;6416;52.182;7.650;2022-10-16T10:29:28;1.20;;;0.63;;
12703;SDS011;6416;52.182;7.650;2022-10-16T10:32:20;0.95;;;0.50;;
12703;SDS011;6416;52.182;7.650;2022-10-16T10:34:58;0.90;;;0.63;;
12703;SDS011;6416;52.182;7.650;2022-10-16T10:37:48;1.80;;;0.90;;
12703;SDS011;6416;52.182;7.650;2022-10-16T10:46:08;1.38;;;0.90;;
12703;SDS011;6416;52.182;7.650;2022-10-16T11:00:47;2.05;;;1.30;;
12703;SDS011;6416;52.182;7.650;2022-10-16T11:06:24;2.00;;;1.40;;
12703;SDS011;6416;52.182;7.650;2022-10-16T11:09:02;3.00;;;1.80;;
12703;SDS011;6416;52.182;7.650;2022-10-16T11:14:18;1.92;;;1.40;;
12703;SDS011;6416;52.182;7.650;2022-10-16T11:17:01;2.10;;;1.58;;
12703;SDS011;6416;52.182;7.650;2022-10-16T11:19:53;2.17;;;1.50;;
12703;SDS011;6416;52.182;7.650;2022-10-16T11:30:27;3.38;;;2.03;;
12703;SDS011;6416;52.182;7.650;2022-10-16T11:38:26;1.83;;;1.20;;
12703;SDS011;6416;52.182;7.650;2022-10-16T11:41:19;5.35;;;1.38;;
12703;SDS011;6416;52.182;7.650;2022-10-16T11:46:34;2.97;;;1.52;;
12703;SDS011;6416;52.182;7.650;2022-10-16T11:49:06;1.77;;;1.00;;
12703;SDS011;6416;52.182;7.650;2022-10-16T11:51:42;9.73;;;1.55;;
12703;SDS011;6416;52.182;7.650;2022-10-16T11:54:32;3.20;;;1.08;;
12703;SDS011;6416;52.182;7.650;2022-10-16T11:57:08;3.03;;;1.30;;
12703;SDS011;6416;52.182;7.650;2022-10-16T12:00:08;5.30;;;1.20;;
12703;SDS011;6416;52.182;7.650;2022-10-16T12:08:15;1.67;;;0.85;;
12703;SDS011;6416;52.182;7.650;2022-10-16T12:10:43;2.38;;;1.08;;
12703;SDS011;6416;52.182;7.650;2022-10-16T12:13:33;2.70;;;0.98;;
12703;SDS011;6416;52.182;7.650;2022-10-16T12:18:30;3.40;;;1.20;;
12703;SDS011;6416;52.182;7.650;2022-10-16T12:20:56;4.03;;;0.88;;
12703;SDS011;6416;52.182;7.650;2022-10-16T12:23:25;3.53;;;1.08;;
12703;SDS011;6416;52.182;7.650;2022-10-16T12:25:54;9.18;;;1.40;;
12703;SDS011;6416;52.182;7.650;2022-10-16T12:28:22;1.17;;;0.60;;
12703;SDS011;6416;52.182;7.650;2022-10-16T12:30:53;3.00;;;1.45;;
12703;SDS011;6416;52.182;7.650;2022-10-16T12:33:37;2.92;;;0.70;;
12703;SDS011;6416;52.182;7.650;2022-10-16T12:36:16;2.10;;;0.90;;
12703;SDS011;6416;52.182;7.650;2022-10-16T12:38:56;2.17;;;1.13;;
12703;SDS011;6416;52.182;7.650;2022-10-16T12:43:52;1.90;;;0.85;;
12703;SDS011;6416;52.182;7.650;2022-10-16T12:48:43;2.00;;;0.95;;
12703;SDS011;6416;52.182;7.650;2022-10-16T12:54:10;2.97;;;1.13;;
12703;SDS011;6416;52.182;7.650;2022-10-16T12:59:29;3.95;;;1.58;;
12703;SDS011;6416;52.182;7.650;2022-10-16T13:10:15;3.60;;;0.98;;
12703;SDS011;6416;52.182;7.650;2022-10-16T13:19:08;2.58;;;0.88;;
12703;SDS011;6416;52.182;7.650;2022-10-16T13:21:50;3.17;;;1.30;;
12703;SDS011;6416;52.182;7.650;2022-10-16T13:27:20;3.10;;;1.25;;
12703;SDS011;6416;52.182;7.650;2022-10-16T13:30:18;2.42;;;1.20;;
12703;SDS011;6416;52.182;7.650;2022-10-16T13:32:47;6.70;;;1.13;;
12703;SDS011;6416;52.182;7.650;2022-10-16T13:35:21;1.80;;;0.80;;
12703;SDS011;6416;52.182;7.650;2022-10-16T13:38:02;3.45;;;1.13;;
12703;SDS011;6416;52.182;7.650;2022-10-16T13:40:28;1.67;;;0.88;;
12703;SDS011;6416;52.182;7.650;2022-10-16T13:42:54;2.60;;;1.00;;
12703;SDS011;6416;52.182;7.650;2022-10-16T13:45:20;2.25;;;0.98;;
12703;SDS011;6416;52.182;7.650;2022-10-16T13:47:47;4.65;;;1.20;;
12703;SDS011;6416;52.182;7.650;2022-10-16T13:50:14;2.70;;;1.13;;
12703;SDS011;6416;52.182;7.650;2022-10-16T13:52:41;6.38;;;1.10;;
12703;SDS011;6416;52.182;7.650;2022-10-16T13:55:11;1.50;;;0.93;;
12703;SDS011;6416;52.182;7.650;2022-10-16T13:57:41;3.10;;;1.00;;
12703;SDS011;6416;52.182;7.650;2022-10-16T14:00:18;5.20;;;1.58;;
12703;SDS011;6416;52.182;7.650;2022-10-16T14:02:43;1.52;;;0.75;;
12703;SDS011;6416;52.182;7.650;2022-10-16T14:05:09;1.92;;;1.00;;
12703;SDS011;6416;52.182;7.650;2022-10-16T14:07:35;3.42;;;1.15;;
12703;SDS011;6416;52.182;7.650;2022-10-16T14:10:04;1.90;;;1.10;;
12703;SDS011;6416;52.182;7.650;2022-10-16T14:12:31;1.67;;;0.93;;
12703;SDS011;6416;52.182;7.650;2022-10-16T14:14:57;2.15;;;0.88;;
12703;SDS011;6416;52.182;7.650;2022-10-16T14:17:26;2.33;;;0.88;;
12703;SDS011;6416;52.182;7.650;2022-10-16T14:19:54;2.13;;;1.00;;
12703;SDS011;6416;52.182;7.650;2022-10-16T14:25:20;4.05;;;1.40;;
12703;SDS011;6416;52.182;7.650;2022-10-16T14:30:55;3.17;;;1.15;;
12703;SDS011;6416;52.182;7.650;2022-10-16T14:33:24;2.08;;;1.00;;
12703;SDS011;6416;52.182;7.650;2022-10-16T14:41:44;2.85;;;1.02;;
12703;SDS011;6416;52.182;7.650;2022-10-16T14:44:12;2.25;;;1.23;;
12703;SDS011;6416;52.182;7.650;2022-10-16T14:46:39;3.47;;;1.00;;
12703;SDS011;6416;52.182;7.650;2022-10-16T14:51:36;3.75;;;1.00;;
12703;SDS011;6416;52.182;7.650;2022-10-16T14:54:02;1.30;;;0.90;;
12703;SDS011;6416;52.182;7.650;2022-10-16T14:56:29;2.35;;;0.90;;
12703;SDS011;6416;52.182;7.650;2022-10-16T14:59:14;2.28;;;1.17;;
12703;SDS011;6416;52.182;7.650;2022-10-16T15:01:44;2.40;;;1.13;;
12703;SDS011;6416;52.182;7.650;2022-10-16T15:04:10;1.38;;;1.00;;
12703;SDS011;6416;52.182;7.650;2022-10-16T15:06:37;3.00;;;1.17;;
12703;SDS011;6416;52.182;7.650;2022-10-16T15:09:02;1.88;;;0.82;;
12703;SDS011;6416;52.182;7.650;2022-10-16T15:11:28;2.20;;;1.10;;
12703;SDS011;6416;52.182;7.650;2022-10-16T15:13:55;1.80;;;1.00;;
12703;SDS011;6416;52.182;7.650;2022-10-16T15:16:21;2.47;;;0.95;;
12703;SDS011;6416;52.182;7.650;2022-10-16T15:18:46;3.83;;;1.45;;
12703;SDS011;6416;52.182;7.650;2022-10-16T15:21:17;2.08;;;1.10;;
12703;SDS011;6416;52.182;7.650;2022-10-16T15:23:49;5.68;;;1.20;;
12703;SDS011;6416;52.182;7.650;2022-10-16T15:26:14;2.60;;;1.27;;
12703;SDS011;6416;52.182;7.650;2022-10-16T15:28:40;3.28;;;1.20;;
12703;SDS011;6416;52.182;7.650;2022-10-16T15:31:05;4.35;;;1.23;;
12703;SDS011;6416;52.182;7.650;2022-10-16T15:33:31;2.38;;;1.15;;
12703;SDS011;6416;52.182;7.650;2022-10-16T15:35:56;2.47;;;0.98;;
12703;SDS011;6416;52.182;7.650;2022-10-16T15:38:22;8.25;;;1.15;;
12703;SDS011;6416;52.182;7.650;2022-10-16T15:40:48;2.42;;;0.88;;
12703;SDS011;6416;52.182;7.650;2022-10-16T15:43:14;2.15;;;0.90;;
12703;SDS011;6416;52.182;7.650;2022-10-16T15:45:39;3.65;;;1.05;;
12703;SDS011;6416;52.182;7.650;2022-10-16T15:48:05;2.95;;;1.00;;
12703;SDS011;6416;52.182;7.650;2022-10-16T15:50:34;2.78;;;1.30;;
12703;SDS011;6416;52.182;7.650;2022-10-16T15:53:03;4.00;;;1.30;;
12703;SDS011;6416;52.182;7.650;2022-10-16T15:55:28;1.35;;;0.80;;
12703;SDS011;6416;52.182;7.650;2022-10-16T15:57:54;7.75;;;1.70;;
12703;SDS011;6416;52.182;7.650;2022-10-16T16:00:19;4.53;;;1.08;;
12703;SDS011;6416;52.182;7.650;2022-10-16T16:02:48;2.85;;;1.10;;
12703;SDS011;6416;52.182;7.650;2022-10-16T16:05:15;3.95;;;1.35;;
12703;SDS011;6416;52.182;7.650;2022-10-16T16:07:40;1.65;;;0.90;;
12703;SDS011;6416;52.182;7.650;2022-10-16T16:10:07;1.77;;;1.05;;
12703;SDS011;6416;52.182;7.650;2022-10-16T16:12:35;4.72;;;1.40;;
12703;SDS011;6416;52.182;7.650;2022-10-16T16:15:00;3.88;;;1.00;;
12703;SDS011;6416;52.182;7.650;2022-10-16T16:17:26;3.28;;;1.25;;
12703;SDS011;6416;52.182;7.650;2022-10-16T16:19:52;4.25;;;1.00;;
12703;SDS011;6416;52.182;7.650;2022-10-16T16:22:17;1.60;;;1.00;;
12703;SDS011;6416;52.182;7.650;2022-10-16T16:24:43;3.55;;;1.10;;
12703;SDS011;6416;52.182;7.650;2022-10-16T16:27:08;3.50;;;1.13;;
12703;SDS011;6416;52.182;7.650;2022-10-16T16:29:34;1.88;;;1.30;;
12703;SDS011;6416;52.182;7.650;2022-10-16T16:32:00;3.35;;;1.48;;
12703;SDS011;6416;52.182;7.650;2022-10-16T16:34:26;3.40;;;1.30;;
12703;SDS011;6416;52.182;7.650;2022-10-16T16:36:53;3.53;;;1.45;;
12703;SDS011;6416;52.182;7.650;2022-10-16T16:39:19;4.05;;;1.80;;
12703;SDS011;6416;52.182;7.650;2022-10-16T16:41:45;2.13;;;1.20;;
12703;SDS011;6416;52.182;7.650;2022-10-16T16:44:11;2.47;;;1.33;;
12703;SDS011;6416;52.182;7.650;2022-10-16T16:46:37;2.05;;;1.00;;
12703;SDS011;6416;52.182;7.650;2022-10-16T16:49:03;2.78;;;1.10;;
12703;SDS011;6416;52.182;7.650;2022-10-16T16:51:29;2.20;;;1.08;;
12703;SDS011;6416;52.182;7.650;2022-10-16T16:53:54;4.47;;;1.35;;
12703;SDS011;6416;52.182;7.650;2022-10-16T16:56:21;3.88;;;1.10;;
12703;SDS011;6416;52.182;7.650;2022-10-16T16:58:48;5.10;;;1.60;;
12703;SDS011;6416;52.182;7.650;2022-10-16T17:01:14;1.15;;;1.00;;
12703;SDS011;6416;52.182;7.650;2022-10-16T17:03:41;3.67;;;1.20;;
12703;SDS011;6416;52.182;7.650;2022-10-16T17:06:08;1.30;;;0.98;;
12703;SDS011;6416;52.182;7.650;2022-10-16T17:08:35;2.63;;;1.08;;
12703;SDS011;6416;52.182;7.650;2022-10-16T17:11:00;3.13;;;1.50;;
12703;SDS011;6416;52.182;7.650;2022-10-16T17:13:28;2.95;;;1.40;;
12703;SDS011;6416;52.182;7.650;2022-10-16T17:15:56;2.30;;;1.35;;
12703;SDS011;6416;52.182;7.650;2022-10-16T17:18:22;4.95;;;1.75;;
12703;SDS011;6416;52.182;7.650;2022-10-16T17:20:48;2.33;;;1.08;;
12703;SDS011;6416;52.182;7.650;2022-10-16T17:23:15;2.63;;;1.23;;